createdAt,value
2023-01-13T00:01:43.145Z,4.95
2023-01-13T00:04:31.621Z,2.45
2023-01-13T00:07:18.686Z,4.60
2023-01-13T00:10:11.351Z,3.42
2023-01-13T00:12:58.424Z,3.13
2023-01-13T00:15:56.124Z,4.15
2023-01-13T00:18:43.829Z,4.30
2023-01-13T00:21:30.889Z,0.82
2023-01-13T00:24:17.902Z,2.20
2023-01-13T00:27:05.275Z,3.35
2023-01-13T00:29:52.757Z,0.90
2023-01-13T00:32:40.253Z,1.40
2023-01-13T00:35:27.387Z,1.48
2023-01-13T00:38:14.441Z,1.83
2023-01-13T00:41:10.525Z,2.00
2023-01-13T00:43:57.592Z,4.28
2023-01-13T00:46:44.678Z,2.53
2023-01-13T00:49:31.732Z,6.07
2023-01-13T00:52:18.861Z,2.90
2023-01-13T00:55:06.341Z,4.85
2023-01-13T00:57:53.497Z,1.48
2023-01-13T01:00:42.006Z,2.50
2023-01-13T01:03:29.367Z,2.72
2023-01-13T01:06:18.956Z,3.45
2023-01-13T01:09:06.495Z,2.00
2023-01-13T01:11:53.654Z,3.72
2023-01-13T01:14:41.257Z,1.63
2023-01-13T01:17:28.601Z,1.20
2023-01-13T01:20:15.910Z,1.92
2023-01-13T01:23:03.590Z,2.55
2023-01-13T01:25:50.788Z,1.35
2023-01-13T01:28:38.113Z,2.03
2023-01-13T01:31:27.995Z,2.00
2023-01-13T01:34:15.089Z,3.20
2023-01-13T01:37:02.229Z,1.58
2023-01-13T01:39:49.425Z,4.63
2023-01-13T01:42:55.022Z,4.90
2023-01-13T01:45:42.084Z,5.15
2023-01-13T01:48:33.392Z,1.50
2023-01-13T01:51:21.321Z,1.88
2023-01-13T01:54:11.622Z,3.17
2023-01-13T01:56:58.977Z,2.78
2023-01-13T01:59:49.439Z,3.05
2023-01-13T02:02:37.323Z,2.67
2023-01-13T02:05:24.546Z,0.47
2023-01-13T02:08:13.580Z,1.65
2023-01-13T02:11:00.640Z,2.13
2023-01-13T02:13:47.643Z,3.05
2023-01-13T02:16:37.379Z,1.75
2023-01-13T02:19:48.033Z,2.58
2023-01-13T02:22:57.171Z,1.10
2023-01-13T02:25:57.748Z,2.28
2023-01-13T02:29:29.954Z,1.88
2023-01-13T02:32:32.277Z,2.70
2023-01-13T02:35:32.952Z,2.45
2023-01-13T02:38:40.458Z,1.27
2023-01-13T02:41:53.007Z,0.40
2023-01-13T02:44:51.291Z,1.98
2023-01-13T02:47:41.359Z,2.47
2023-01-13T02:50:53.591Z,1.38
2023-01-13T02:53:50.943Z,3.55
2023-01-13T02:56:42.743Z,0.45
2023-01-13T02:59:30.928Z,1.00
2023-01-13T03:02:21.056Z,4.28
2023-01-13T03:05:12.220Z,2.00
2023-01-13T03:08:18.387Z,3.25
2023-01-13T03:11:17.264Z,1.77
2023-01-13T03:14:18.686Z,2.30
2023-01-13T03:17:22.077Z,0.60
2023-01-13T03:20:28.211Z,3.83
2023-01-13T03:23:26.145Z,3.58
2023-01-13T03:26:18.976Z,2.78
2023-01-13T03:29:14.936Z,1.40
2023-01-13T03:32:14.301Z,0.68
2023-01-13T03:35:13.544Z,0.43
2023-01-13T03:38:06.276Z,1.15
2023-01-13T03:40:59.406Z,1.55
2023-01-13T03:44:13.670Z,1.10
2023-01-13T03:47:06.642Z,0.50
2023-01-13T03:49:53.633Z,2.33
2023-01-13T03:52:46.355Z,1.65
2023-01-13T03:55:37.899Z,2.25
2023-01-13T03:58:31.133Z,2.88
2023-01-13T04:01:35.299Z,2.15
2023-01-13T04:04:29.340Z,3.50
2023-01-13T04:07:39.473Z,1.67
2023-01-13T04:10:31.625Z,3.97
2023-01-13T04:13:23.227Z,3.90
2023-01-13T04:16:11.785Z,2.97
2023-01-13T04:18:58.934Z,2.08
2023-01-13T04:21:46.119Z,2.08
2023-01-13T04:24:33.243Z,1.92
2023-01-13T04:27:20.305Z,2.60
2023-01-13T04:30:08.271Z,2.50
2023-01-13T04:32:55.406Z,1.40
2023-01-13T04:35:43.981Z,1.83
2023-01-13T04:38:31.099Z,2.55
2023-01-13T04:41:18.175Z,0.88
2023-01-13T04:44:05.526Z,0.90
2023-01-13T04:46:52.960Z,0.82
2023-01-13T04:49:40.050Z,2.13
2023-01-13T04:52:27.165Z,0.65
2023-01-13T04:55:14.735Z,3.20
2023-01-13T04:58:06.437Z,1.55
2023-01-13T05:00:53.472Z,2.88
2023-01-13T05:03:40.679Z,1.83
2023-01-13T05:06:27.800Z,2.08
2023-01-13T05:09:15.667Z,1.00
2023-01-13T05:12:21.497Z,2.55
2023-01-13T05:15:30.517Z,3.08
2023-01-13T05:18:19.131Z,2.22
2023-01-13T05:21:26.180Z,1.30
2023-01-13T05:24:31.790Z,1.58
2023-01-13T05:27:18.845Z,1.77
2023-01-13T05:30:06.525Z,2.10
2023-01-13T05:32:53.995Z,1.15
2023-01-13T05:35:42.877Z,3.13
2023-01-13T05:38:29.912Z,1.98
2023-01-13T05:41:35.319Z,2.22
2023-01-13T05:44:22.462Z,3.45
2023-01-13T05:47:10.692Z,2.47
2023-01-13T05:49:57.821Z,0.93
2023-01-13T05:52:45.010Z,2.42
2023-01-13T05:55:32.332Z,3.70
2023-01-13T05:58:21.277Z,2.22
2023-01-13T06:01:09.449Z,1.90
2023-01-13T06:03:56.512Z,2.55
2023-01-13T06:06:44.922Z,0.98
2023-01-13T06:09:32.023Z,1.65
2023-01-13T06:12:19.100Z,1.13
2023-01-13T06:15:06.850Z,3.70
2023-01-13T06:17:54.033Z,1.40
2023-01-13T06:20:41.105Z,0.88
2023-01-13T06:23:28.741Z,0.50
2023-01-13T06:26:25.200Z,2.45
2023-01-13T06:29:14.968Z,1.15
2023-01-13T06:32:11.565Z,1.70
2023-01-13T06:35:05.513Z,3.50
2023-01-13T06:37:55.726Z,1.10
2023-01-13T06:40:43.757Z,1.50
2023-01-13T06:43:30.827Z,3.10
2023-01-13T06:46:17.890Z,1.00
2023-01-13T06:49:07.001Z,0.63
2023-01-13T06:51:54.049Z,2.15
2023-01-13T06:54:41.189Z,1.33
2023-01-13T06:57:28.430Z,1.55
2023-01-13T07:00:15.988Z,1.58
2023-01-13T07:03:14.254Z,3.75
2023-01-13T07:06:02.268Z,1.83
2023-01-13T07:08:49.345Z,0.82
2023-01-13T07:11:36.387Z,0.80
2023-01-13T07:14:42.038Z,0.52
2023-01-13T07:17:29.151Z,2.33
2023-01-13T07:20:17.040Z,0.85
2023-01-13T07:23:04.176Z,1.73
2023-01-13T07:25:51.278Z,1.60
2023-01-13T07:28:39.684Z,1.15
2023-01-13T07:31:26.845Z,0.73
2023-01-13T07:34:14.007Z,0.40
2023-01-13T07:37:01.465Z,0.70
2023-01-13T07:39:50.209Z,1.00
2023-01-13T07:42:57.449Z,2.55
2023-01-13T07:45:44.604Z,1.02
2023-01-13T07:48:34.074Z,1.17
2023-01-13T07:51:21.237Z,0.30
2023-01-13T07:54:08.305Z,1.48
2023-01-13T07:56:58.499Z,0.73
2023-01-13T07:59:45.552Z,1.55
2023-01-13T08:02:32.948Z,0.57
2023-01-13T08:05:20.200Z,1.13
2023-01-13T08:08:07.348Z,0.77
2023-01-13T08:10:54.470Z,1.92
2023-01-13T08:13:41.613Z,1.48
2023-01-13T08:16:28.717Z,0.90
2023-01-13T08:19:15.861Z,1.17
2023-01-13T08:22:03.029Z,0.80
2023-01-13T08:24:50.370Z,1.20
2023-01-13T08:27:37.435Z,1.88
2023-01-13T08:30:24.551Z,1.58
2023-01-13T08:33:13.181Z,2.78
2023-01-13T08:36:07.056Z,1.98
2023-01-13T08:38:54.124Z,0.55
2023-01-13T08:41:55.174Z,2.17
2023-01-13T08:44:42.293Z,2.05
2023-01-13T08:47:29.460Z,1.88
2023-01-13T08:50:17.129Z,2.63
2023-01-13T08:53:04.327Z,0.50
2023-01-13T08:55:51.491Z,4.15
2023-01-13T08:58:39.117Z,2.88
2023-01-13T09:01:27.339Z,1.63
2023-01-13T09:04:20.645Z,0.68
2023-01-13T09:07:09.150Z,1.33
2023-01-13T09:09:57.045Z,2.05
2023-01-13T09:13:02.862Z,1.95
2023-01-13T09:15:49.978Z,2.20
2023-01-13T09:18:37.233Z,1.75
2023-01-13T09:21:24.355Z,1.42
2023-01-13T09:24:11.598Z,3.03
2023-01-13T09:26:58.792Z,1.42
2023-01-13T09:29:45.923Z,0.55
2023-01-13T09:32:33.128Z,3.10
2023-01-13T09:35:20.208Z,0.70
2023-01-13T09:38:07.592Z,1.13
2023-01-13T09:40:55.733Z,2.03
2023-01-13T09:43:54.983Z,1.20
2023-01-13T09:46:52.545Z,2.63
2023-01-13T09:49:42.187Z,4.93
2023-01-13T09:52:29.527Z,2.13
2023-01-13T09:55:22.688Z,7.32
2023-01-13T09:58:16.836Z,3.58
2023-01-13T10:01:13.193Z,2.22
2023-01-13T10:04:18.748Z,3.78
2023-01-13T10:07:13.936Z,4.50
2023-01-13T10:10:03.405Z,5.25
2023-01-13T10:13:09.505Z,5.97
2023-01-13T10:16:04.644Z,3.40
2023-01-13T10:19:29.169Z,5.95
2023-01-13T10:22:36.561Z,4.47
2023-01-13T10:25:42.105Z,2.63
2023-01-13T10:28:29.211Z,2.72
2023-01-13T10:31:17.898Z,2.72
2023-01-13T10:34:05.144Z,2.88
2023-01-13T10:37:03.154Z,4.47
2023-01-13T10:39:55.001Z,4.97
2023-01-13T10:42:42.166Z,2.50
2023-01-13T10:45:29.280Z,4.32
2023-01-13T10:48:16.551Z,2.33
2023-01-13T10:51:13.724Z,4.63
2023-01-13T10:54:02.686Z,2.70
2023-01-13T10:57:13.648Z,3.80
2023-01-13T11:00:04.635Z,4.03
2023-01-13T11:03:28.227Z,3.80
2023-01-13T11:06:22.968Z,4.75
2023-01-13T11:09:20.213Z,6.15
2023-01-13T11:12:34.881Z,5.03
2023-01-13T11:15:29.995Z,6.10
2023-01-13T11:18:40.469Z,6.50
2023-01-13T11:21:53.952Z,5.18
2023-01-13T11:24:51.244Z,4.97
2023-01-13T11:28:17.521Z,4.95
2023-01-13T11:31:04.670Z,3.75
2023-01-13T11:33:59.106Z,6.43
2023-01-13T11:36:55.234Z,5.50
2023-01-13T11:40:01.653Z,4.97
2023-01-13T11:43:07.557Z,7.13
2023-01-13T11:45:58.487Z,6.97
2023-01-13T11:48:45.628Z,4.78
2023-01-13T11:51:49.894Z,3.38
2023-01-13T11:55:15.636Z,3.25
2023-01-13T11:58:16.754Z,4.32
2023-01-13T12:01:17.601Z,2.20
2023-01-13T12:04:23.256Z,3.20
2023-01-13T12:07:23.129Z,1.58
2023-01-13T12:10:17.332Z,4.63
2023-01-13T12:13:26.541Z,7.50
2023-01-13T12:16:23.798Z,2.33
2023-01-13T12:19:20.246Z,1.90
2023-01-13T12:22:20.654Z,2.55
2023-01-13T12:25:37.178Z,2.37
2023-01-13T12:29:02.812Z,2.67
2023-01-13T12:31:51.331Z,4.30
2023-01-13T12:34:47.678Z,1.73
2023-01-13T12:37:46.131Z,5.18
2023-01-13T12:40:48.023Z,5.65
2023-01-13T12:43:55.954Z,5.63
2023-01-13T12:47:01.387Z,2.55
2023-01-13T12:49:48.549Z,3.42
2023-01-13T12:52:44.286Z,3.40
2023-01-13T12:55:33.934Z,3.72
2023-01-13T12:58:28.737Z,1.95
2023-01-13T13:01:16.105Z,1.23
2023-01-13T13:04:17.116Z,3.65
2023-01-13T13:07:10.292Z,1.27
2023-01-13T13:10:07.797Z,5.28
2023-01-13T13:13:18.331Z,0.40
2023-01-13T13:16:27.580Z,1.77
2023-01-13T13:19:17.953Z,2.35
2023-01-13T13:22:14.392Z,3.00
2023-01-13T13:25:04.584Z,2.70
2023-01-13T13:28:09.676Z,2.63
2023-01-13T13:31:25.989Z,2.60
2023-01-13T13:34:28.268Z,0.50
2023-01-13T13:37:25.347Z,0.65
2023-01-13T13:40:31.272Z,3.83
2023-01-13T13:43:38.985Z,3.28
2023-01-13T13:46:49.825Z,1.80
2023-01-13T13:49:45.215Z,2.58
2023-01-13T13:52:40.452Z,2.65
2023-01-13T13:55:29.351Z,5.00
2023-01-13T13:58:18.126Z,1.75
2023-01-13T14:01:05.616Z,5.45
2023-01-13T14:04:23.576Z,4.72
2023-01-13T14:07:21.848Z,4.78
2023-01-13T14:10:17.856Z,4.53
2023-01-13T14:13:17.891Z,5.85
2023-01-13T14:16:10.329Z,3.00
2023-01-13T14:18:57.680Z,3.95
2023-01-13T14:21:48.137Z,2.92
2023-01-13T14:24:46.527Z,7.03
2023-01-13T14:27:35.352Z,5.47
2023-01-13T14:30:24.572Z,2.65
2023-01-13T14:33:17.619Z,3.55
2023-01-13T14:36:21.170Z,1.88
2023-01-13T14:39:10.322Z,3.65
2023-01-13T14:41:57.582Z,4.90
2023-01-13T14:44:50.471Z,9.63
2023-01-13T14:47:39.547Z,3.58
2023-01-13T14:50:31.521Z,2.60
2023-01-13T14:53:36.768Z,2.90
2023-01-13T14:56:44.152Z,5.07
2023-01-13T15:00:00.642Z,5.70
2023-01-13T15:02:57.863Z,5.97
2023-01-13T15:05:52.759Z,9.32
2023-01-13T15:08:40.766Z,2.05
2023-01-13T15:11:28.927Z,6.50
2023-01-13T15:14:23.168Z,7.70
2023-01-13T15:17:16.647Z,5.45
2023-01-13T15:20:06.441Z,3.60
2023-01-13T15:22:55.650Z,4.82
2023-01-13T15:25:43.692Z,4.45
2023-01-13T15:28:32.196Z,8.02
2023-01-13T15:31:19.801Z,3.20
2023-01-13T15:34:06.903Z,7.88
2023-01-13T15:36:54.049Z,1.77
2023-01-13T15:39:41.204Z,4.78
2023-01-13T15:42:47.002Z,5.32
2023-01-13T15:45:55.255Z,5.20
2023-01-13T15:48:42.433Z,8.25
2023-01-13T15:51:29.610Z,4.90
2023-01-13T15:54:16.763Z,3.28
2023-01-13T15:57:03.895Z,5.55
2023-01-13T15:59:53.715Z,4.75
2023-01-13T16:02:40.821Z,6.18
2023-01-13T16:05:28.042Z,4.00
2023-01-13T16:08:20.654Z,4.15
2023-01-13T16:11:09.483Z,4.40
2023-01-13T16:13:56.586Z,3.47
2023-01-13T16:16:43.709Z,3.45
2023-01-13T16:19:31.466Z,2.83
2023-01-13T16:22:18.671Z,7.13
2023-01-13T16:25:06.250Z,9.85
2023-01-13T16:27:53.491Z,1.55
2023-01-13T16:30:40.591Z,6.80
2023-01-13T16:33:27.770Z,8.32
2023-01-13T16:36:16.873Z,8.98
2023-01-13T16:39:05.082Z,8.02
2023-01-13T16:41:52.309Z,5.80
2023-01-13T16:44:39.416Z,4.85
2023-01-13T16:47:26.724Z,5.63
2023-01-13T16:50:30.506Z,7.88
2023-01-13T16:53:17.653Z,7.70
2023-01-13T16:56:20.769Z,7.22
2023-01-13T16:59:16.863Z,7.43
2023-01-13T17:02:05.117Z,3.42
2023-01-13T17:04:52.333Z,7.78
2023-01-13T17:07:41.697Z,3.38
2023-01-13T17:10:28.886Z,7.07
2023-01-13T17:13:17.083Z,6.00
2023-01-13T17:16:05.840Z,7.60
2023-01-13T17:18:53.745Z,6.47
2023-01-13T17:21:40.962Z,7.75
2023-01-13T17:24:30.920Z,11.18
2023-01-13T17:27:18.606Z,2.67
2023-01-13T17:30:06.428Z,8.10
2023-01-13T17:32:54.066Z,7.75
2023-01-13T17:35:41.279Z,5.55
2023-01-13T17:38:28.440Z,6.55
2023-01-13T17:41:15.473Z,6.28
2023-01-13T17:44:02.534Z,9.00
2023-01-13T17:46:49.843Z,8.68
2023-01-13T17:49:36.942Z,7.20
2023-01-13T17:52:23.978Z,10.32
2023-01-13T17:55:11.094Z,7.90
2023-01-13T17:57:58.188Z,5.88
2023-01-13T18:00:45.334Z,3.92
2023-01-13T18:03:32.411Z,10.70
2023-01-13T18:06:22.778Z,5.78
2023-01-13T18:09:10.038Z,10.85
2023-01-13T18:11:57.152Z,10.35
2023-01-13T18:14:44.255Z,9.85
2023-01-13T18:17:31.410Z,7.45
2023-01-13T18:20:37.199Z,5.05
2023-01-13T18:23:42.666Z,8.48
2023-01-13T18:26:48.033Z,5.88
2023-01-13T18:29:35.069Z,6.75
2023-01-13T18:32:23.725Z,10.15
2023-01-13T18:35:10.889Z,9.20
2023-01-13T18:37:58.028Z,7.32
2023-01-13T18:40:45.207Z,10.30
2023-01-13T18:43:33.562Z,5.07
2023-01-13T18:46:21.253Z,6.60
2023-01-13T18:49:08.470Z,7.97
2023-01-13T18:51:55.684Z,7.70
2023-01-13T18:54:42.763Z,7.57
2023-01-13T18:57:29.807Z,5.53
2023-01-13T19:00:19.771Z,7.18
2023-01-13T19:06:04.777Z,8.73
2023-01-13T19:08:53.478Z,6.55
2023-01-13T19:11:42.241Z,8.05
2023-01-13T19:14:37.255Z,6.57
2023-01-13T19:17:26.141Z,4.13
2023-01-13T19:20:13.309Z,8.75
2023-01-13T19:23:00.382Z,10.30
2023-01-13T19:25:47.440Z,7.82
2023-01-13T19:28:35.103Z,7.25
2023-01-13T19:31:23.443Z,4.97
2023-01-13T19:34:10.666Z,6.53
2023-01-13T19:36:57.931Z,9.10
2023-01-13T19:39:45.164Z,5.68
2023-01-13T19:42:50.894Z,10.82
2023-01-13T19:45:38.013Z,4.97
2023-01-13T19:48:26.159Z,5.22
2023-01-13T19:51:14.551Z,6.32
2023-01-13T19:54:01.776Z,4.72
2023-01-13T19:56:49.040Z,8.93
2023-01-13T19:59:40.550Z,8.20
2023-01-13T20:02:28.857Z,6.32
2023-01-13T20:05:21.091Z,6.22
2023-01-13T20:08:08.753Z,12.15
2023-01-13T20:11:15.840Z,4.32
2023-01-13T20:14:03.993Z,6.00
2023-01-13T20:16:52.142Z,8.98
2023-01-13T20:19:39.216Z,8.30
2023-01-13T20:22:26.395Z,7.30
2023-01-13T20:25:16.944Z,10.63
2023-01-13T20:28:04.744Z,5.72
2023-01-13T20:30:53.319Z,13.05
2023-01-13T20:33:40.793Z,7.65
2023-01-13T20:36:31.537Z,7.00
2023-01-13T20:39:25.279Z,7.65
2023-01-13T20:42:32.119Z,9.43
2023-01-13T20:45:21.568Z,8.80
2023-01-13T20:48:08.734Z,8.45
2023-01-13T20:50:58.868Z,9.65
2023-01-13T20:53:45.962Z,9.48
2023-01-13T20:56:33.270Z,7.82
2023-01-13T20:59:20.650Z,7.85
2023-01-13T21:02:12.943Z,3.22
2023-01-13T21:05:00.046Z,6.15
2023-01-13T21:07:47.236Z,5.05
2023-01-13T21:10:34.495Z,6.07
2023-01-13T21:13:40.047Z,7.53
2023-01-13T21:16:27.227Z,12.85
2023-01-13T21:19:14.394Z,5.15
2023-01-13T21:22:03.957Z,7.80
2023-01-13T21:24:51.309Z,3.70
2023-01-13T21:27:38.937Z,7.05
2023-01-13T21:30:26.017Z,5.20
2023-01-13T21:33:14.155Z,9.98
2023-01-13T21:36:19.562Z,12.40
2023-01-13T21:39:07.004Z,4.35
2023-01-13T21:42:12.934Z,9.10
2023-01-13T21:45:18.881Z,7.43
2023-01-13T21:48:07.314Z,5.25
2023-01-13T21:50:54.685Z,4.47
2023-01-13T21:53:41.829Z,6.35
2023-01-13T21:56:28.964Z,7.22
2023-01-13T21:59:16.006Z,9.50
2023-01-13T22:02:25.202Z,9.70
2023-01-13T22:05:15.692Z,8.00
2023-01-13T22:08:03.609Z,13.80
2023-01-13T22:11:00.763Z,6.85
2023-01-13T22:14:08.825Z,8.85
2023-01-13T22:17:00.552Z,14.00
2023-01-13T22:19:49.316Z,9.25
2023-01-13T22:22:37.078Z,6.53
2023-01-13T22:25:24.303Z,5.97
2023-01-13T22:28:13.887Z,7.75
2023-01-13T22:31:01.363Z,6.03
2023-01-13T22:33:48.502Z,7.55
2023-01-13T22:36:35.634Z,6.97
2023-01-13T22:39:22.817Z,10.57
2023-01-13T22:42:10.176Z,10.13
2023-01-13T22:44:57.313Z,6.63
2023-01-13T22:47:44.380Z,5.97
2023-01-13T22:50:32.603Z,8.35
2023-01-13T22:53:20.358Z,11.70
2023-01-13T22:56:08.283Z,6.68
2023-01-13T22:58:57.521Z,8.38
2023-01-13T23:01:44.698Z,11.90
2023-01-13T23:04:31.948Z,10.95
2023-01-13T23:07:19.040Z,9.68
2023-01-13T23:10:06.443Z,13.52
2023-01-13T23:12:53.751Z,13.93
2023-01-13T23:15:40.818Z,10.75
2023-01-13T23:18:27.970Z,11.05
2023-01-13T23:21:18.182Z,7.03
2023-01-13T23:24:06.314Z,8.37
2023-01-13T23:26:53.413Z,15.13
2023-01-13T23:29:40.530Z,9.93
2023-01-13T23:32:27.879Z,9.27
2023-01-13T23:35:15.267Z,9.07
2023-01-13T23:38:02.644Z,8.45
2023-01-13T23:40:49.898Z,10.32
2023-01-13T23:43:37.311Z,13.25
2023-01-13T23:46:25.697Z,14.10
2023-01-13T23:49:12.853Z,9.52
2023-01-13T23:52:00.130Z,9.32
2023-01-13T23:54:47.192Z,8.73
2023-01-13T23:57:34.305Z,12.13
